sensor_id;sensor_type;location;lat;lon;timestamp;P1;durP1;ratioP1;P2;durP2;ratioP2
4921;SDS011;16625;53.624;10.106;2023-02-14T07:37:58;43.57;;;19.17;;
4921;SDS011;16625;53.624;10.106;2023-02-14T07:41:50;41.93;;;17.80;;
4921;SDS011;16625;53.624;10.106;2023-02-14T07:44:28;41.00;;;20.10;;
4921;SDS011;16625;53.624;10.106;2023-02-14T07:53:26;58.03;;;22.30;;
4921;SDS011;16625;53.624;10.106;2023-02-14T07:54:06;42.77;;;18.87;;
4921;SDS011;16625;53.624;10.106;2023-02-14T07:56:41;39.70;;;18.50;;
4921;SDS011;16625;53.624;10.106;2023-02-14T07:59:31;46.30;;;21.30;;
4921;SDS011;16625;53.624;10.106;2023-02-14T08:01:58;49.73;;;19.77;;
4921;SDS011;16625;53.624;10.106;2023-02-14T08:04:27;41.67;;;17.13;;
4921;SDS011;16625;53.624;10.106;2023-02-14T08:06:55;40.33;;;18.97;;
4921;SDS011;16625;53.624;10.106;2023-02-14T08:09:25;42.40;;;18.50;;
4921;SDS011;16625;53.624;10.106;2023-02-14T08:12:06;42.97;;;19.93;;
4921;SDS011;16625;53.624;10.106;2023-02-14T08:14:53;46.93;;;18.70;;
4921;SDS011;16625;53.624;10.106;2023-02-14T08:17:45;45.73;;;19.77;;
4921;SDS011;16625;53.624;10.106;2023-02-14T08:20:30;42.80;;;19.70;;
4921;SDS011;16625;53.624;10.106;2023-02-14T08:23:03;40.87;;;19.53;;
4921;SDS011;16625;53.624;10.106;2023-02-14T08:25:33;54.90;;;20.33;;
4921;SDS011;16625;53.624;10.106;2023-02-14T08:28:05;38.40;;;17.20;;
4921;SDS011;16625;53.624;10.106;2023-02-14T08:30:53;37.50;;;18.17;;
4921;SDS011;16625;53.624;10.106;2023-02-14T08:33:21;35.77;;;17.47;;
4921;SDS011;16625;53.624;10.106;2023-02-14T08:35:51;33.37;;;16.70;;
4921;SDS011;16625;53.624;10.106;2023-02-14T08:38:28;32.73;;;16.93;;
4921;SDS011;16625;53.624;10.106;2023-02-14T08:41:13;35.03;;;16.60;;
4921;SDS011;16625;53.624;10.106;2023-02-14T08:43:49;35.90;;;17.90;;
4921;SDS011;16625;53.624;10.106;2023-02-14T08:46:19;32.90;;;17.13;;
4921;SDS011;16625;53.624;10.106;2023-02-14T08:48:54;38.80;;;16.60;;
4921;SDS011;16625;53.624;10.106;2023-02-14T08:51:30;38.60;;;18.70;;
4921;SDS011;16625;53.624;10.106;2023-02-14T08:54:03;29.47;;;16.73;;
4921;SDS011;16625;53.624;10.106;2023-02-14T08:56:35;39.03;;;17.97;;
4921;SDS011;16625;53.624;10.106;2023-02-14T08:59:08;32.33;;;14.10;;
4921;SDS011;16625;53.624;10.106;2023-02-14T09:01:38;47.87;;;17.10;;
4921;SDS011;16625;53.624;10.106;2023-02-14T09:04:25;33.63;;;15.17;;
4921;SDS011;16625;53.624;10.106;2023-02-14T09:06:56;29.97;;;16.10;;
4921;SDS011;16625;53.624;10.106;2023-02-14T09:09:36;34.70;;;14.70;;
4921;SDS011;16625;53.624;10.106;2023-02-14T09:12:05;32.30;;;15.63;;
4921;SDS011;16625;53.624;10.106;2023-02-14T09:14:42;29.70;;;14.27;;
4921;SDS011;16625;53.624;10.106;2023-02-14T09:17:32;31.83;;;15.30;;
4921;SDS011;16625;53.624;10.106;2023-02-14T09:20:08;29.50;;;15.10;;
4921;SDS011;16625;53.624;10.106;2023-02-14T09:23:50;34.87;;;16.97;;
4921;SDS011;16625;53.624;10.106;2023-02-14T09:26:51;31.57;;;16.63;;
4921;SDS011;16625;53.624;10.106;2023-02-14T09:29:17;26.47;;;14.03;;
4921;SDS011;16625;53.624;10.106;2023-02-14T09:31:59;30.90;;;14.90;;
4921;SDS011;16625;53.624;10.106;2023-02-14T09:34:57;25.40;;;13.30;;
4921;SDS011;16625;53.624;10.106;2023-02-14T09:37:35;31.97;;;15.50;;
4921;SDS011;16625;53.624;10.106;2023-02-14T09:40:22;31.60;;;14.60;;
4921;SDS011;16625;53.624;10.106;2023-02-14T09:43:09;28.70;;;14.67;;
4921;SDS011;16625;53.624;10.106;2023-02-14T09:49:32;38.13;;;13.93;;
4921;SDS011;16625;53.624;10.106;2023-02-14T09:52:29;29.90;;;12.80;;
4921;SDS011;16625;53.624;10.106;2023-02-14T09:54:59;30.27;;;16.23;;
4921;SDS011;16625;53.624;10.106;2023-02-14T09:58:18;33.00;;;16.80;;
4921;SDS011;16625;53.624;10.106;2023-02-14T10:00:54;33.20;;;14.50;;
4921;SDS011;16625;53.624;10.106;2023-02-14T10:04:12;27.63;;;14.43;;
4921;SDS011;16625;53.624;10.106;2023-02-14T10:06:48;27.17;;;15.07;;
4921;SDS011;16625;53.624;10.106;2023-02-14T10:12:30;41.37;;;16.53;;
4921;SDS011;16625;53.624;10.106;2023-02-14T10:15:11;33.43;;;16.00;;
4921;SDS011;16625;53.624;10.106;2023-02-14T10:18:11;36.83;;;14.87;;
4921;SDS011;16625;53.624;10.106;2023-02-14T10:21:32;32.63;;;15.10;;
4921;SDS011;16625;53.624;10.106;2023-02-14T10:24:53;30.07;;;15.33;;
4921;SDS011;16625;53.624;10.106;2023-02-14T10:27:57;27.57;;;14.03;;
4921;SDS011;16625;53.624;10.106;2023-02-14T10:31:23;29.00;;;15.00;;
4921;SDS011;16625;53.624;10.106;2023-02-14T10:34:21;24.73;;;14.17;;
4921;SDS011;16625;53.624;10.106;2023-02-14T10:43:29;30.20;;;15.37;;
4921;SDS011;16625;53.624;10.106;2023-02-14T10:46:53;31.43;;;15.10;;
4921;SDS011;16625;53.624;10.106;2023-02-14T10:49:57;31.00;;;16.93;;
4921;SDS011;16625;53.624;10.106;2023-02-14T10:53:11;25.70;;;14.13;;
4921;SDS011;16625;53.624;10.106;2023-02-14T10:56:25;30.80;;;16.30;;
4921;SDS011;16625;53.624;10.106;2023-02-14T11:02:26;27.60;;;14.13;;
4921;SDS011;16625;53.624;10.106;2023-02-14T11:07:37;25.13;;;13.87;;
4921;SDS011;16625;53.624;10.106;2023-02-14T11:10:38;27.60;;;14.10;;
4921;SDS011;16625;53.624;10.106;2023-02-14T11:13:01;27.40;;;14.57;;
4921;SDS011;16625;53.624;10.106;2023-02-14T11:25:05;25.57;;;13.70;;
4921;SDS011;16625;53.624;10.106;2023-02-14T11:28:07;29.23;;;15.43;;
4921;SDS011;16625;53.624;10.106;2023-02-14T11:37:56;28.90;;;15.17;;
4921;SDS011;16625;53.624;10.106;2023-02-14T11:40:51;26.53;;;15.00;;
4921;SDS011;16625;53.624;10.106;2023-02-14T11:44:10;29.53;;;14.13;;
4921;SDS011;16625;53.624;10.106;2023-02-14T11:51:24;31.33;;;17.10;;
4921;SDS011;16625;53.624;10.106;2023-02-14T12:01:00;30.83;;;16.50;;
4921;SDS011;16625;53.624;10.106;2023-02-14T12:04:11;34.97;;;15.80;;
4921;SDS011;16625;53.624;10.106;2023-02-14T12:07:35;22.10;;;14.00;;
4921;SDS011;16625;53.624;10.106;2023-02-14T12:13:59;27.10;;;15.50;;
4921;SDS011;16625;53.624;10.106;2023-02-14T12:23:55;32.97;;;14.47;;
4921;SDS011;16625;53.624;10.106;2023-02-14T12:27:20;30.37;;;15.50;;
4921;SDS011;16625;53.624;10.106;2023-02-14T12:30:40;37.77;;;16.07;;
4921;SDS011;16625;53.624;10.106;2023-02-14T12:40:32;30.97;;;13.47;;
4921;SDS011;16625;53.624;10.106;2023-02-14T12:54:18;28.10;;;15.07;;
4921;SDS011;16625;53.624;10.106;2023-02-14T12:57:57;29.90;;;16.63;;
4921;SDS011;16625;53.624;10.106;2023-02-14T13:01:12;26.13;;;15.00;;
4921;SDS011;16625;53.624;10.106;2023-02-14T13:28:51;25.63;;;14.60;;
4921;SDS011;16625;53.624;10.106;2023-02-14T13:31:23;31.13;;;15.70;;
4921;SDS011;16625;53.624;10.106;2023-02-14T13:33:51;27.90;;;15.40;;
4921;SDS011;16625;53.624;10.106;2023-02-14T13:36:21;29.17;;;15.20;;
4921;SDS011;16625;53.624;10.106;2023-02-14T13:38:49;32.83;;;14.93;;
4921;SDS011;16625;53.624;10.106;2023-02-14T13:41:20;32.50;;;15.40;;
4921;SDS011;16625;53.624;10.106;2023-02-14T13:43:54;41.90;;;14.80;;
4921;SDS011;16625;53.624;10.106;2023-02-14T13:46:44;25.70;;;15.40;;
4921;SDS011;16625;53.624;10.106;2023-02-14T13:49:27;31.73;;;14.57;;
4921;SDS011;16625;53.624;10.106;2023-02-14T13:51:59;32.40;;;18.47;;
4921;SDS011;16625;53.624;10.106;2023-02-14T13:58:00;30.73;;;13.53;;
4921;SDS011;16625;53.624;10.106;2023-02-14T14:00:38;30.03;;;15.67;;
4921;SDS011;16625;53.624;10.106;2023-02-14T14:03:10;27.03;;;14.20;;
4921;SDS011;16625;53.624;10.106;2023-02-14T14:05:59;24.67;;;13.37;;
4921;SDS011;16625;53.624;10.106;2023-02-14T14:08:39;23.80;;;14.63;;
4921;SDS011;16625;53.624;10.106;2023-02-14T14:11:11;22.50;;;14.43;;
4921;SDS011;16625;53.624;10.106;2023-02-14T14:14:30;28.90;;;14.23;;
4921;SDS011;16625;53.624;10.106;2023-02-14T14:17:17;35.13;;;16.80;;
4921;SDS011;16625;53.624;10.106;2023-02-14T14:19:47;28.67;;;14.90;;
4921;SDS011;16625;53.624;10.106;2023-02-14T14:22:14;32.53;;;16.87;;
4921;SDS011;16625;53.624;10.106;2023-02-14T14:25:01;30.93;;;16.97;;
4921;SDS011;16625;53.624;10.106;2023-02-14T14:27:33;32.33;;;15.33;;
4921;SDS011;16625;53.624;10.106;2023-02-14T14:30:06;29.37;;;14.97;;
4921;SDS011;16625;53.624;10.106;2023-02-14T14:32:49;31.57;;;16.50;;
4921;SDS011;16625;53.624;10.106;2023-02-14T14:35:16;26.53;;;15.00;;
4921;SDS011;16625;53.624;10.106;2023-02-14T14:37:45;31.53;;;16.73;;
4921;SDS011;16625;53.624;10.106;2023-02-14T14:40:17;31.27;;;17.17;;
4921;SDS011;16625;53.624;10.106;2023-02-14T14:42:49;31.73;;;16.47;;
4921;SDS011;16625;53.624;10.106;2023-02-14T14:52:24;30.17;;;14.80;;
4921;SDS011;16625;53.624;10.106;2023-02-14T14:57:15;31.60;;;15.47;;
4921;SDS011;16625;53.624;10.106;2023-02-14T14:58:37;29.53;;;13.83;;
4921;SDS011;16625;53.624;10.106;2023-02-14T15:05:22;27.23;;;14.37;;
4921;SDS011;16625;53.624;10.106;2023-02-14T15:11:14;31.87;;;15.07;;
4921;SDS011;16625;53.624;10.106;2023-02-14T15:17:08;35.57;;;16.03;;
4921;SDS011;16625;53.624;10.106;2023-02-14T15:19:59;31.07;;;15.70;;
4921;SDS011;16625;53.624;10.106;2023-02-14T15:29:18;28.03;;;14.23;;
4921;SDS011;16625;53.624;10.106;2023-02-14T15:32:52;27.83;;;15.20;;
4921;SDS011;16625;53.624;10.106;2023-02-14T15:35:32;29.30;;;15.53;;
4921;SDS011;16625;53.624;10.106;2023-02-14T15:38:32;29.97;;;12.97;;
4921;SDS011;16625;53.624;10.106;2023-02-14T15:41:50;36.17;;;14.50;;
4921;SDS011;16625;53.624;10.106;2023-02-14T15:49:18;30.73;;;14.13;;
4921;SDS011;16625;53.624;10.106;2023-02-14T15:52:18;28.30;;;13.60;;
4921;SDS011;16625;53.624;10.106;2023-02-14T15:55:39;28.80;;;15.00;;
4921;SDS011;16625;53.624;10.106;2023-02-14T15:59:15;26.70;;;14.73;;
4921;SDS011;16625;53.624;10.106;2023-02-14T16:14:18;25.77;;;14.00;;
4921;SDS011;16625;53.624;10.106;2023-02-14T16:17:52;35.93;;;15.60;;
4921;SDS011;16625;53.624;10.106;2023-02-14T16:24:08;31.37;;;15.47;;
4921;SDS011;16625;53.624;10.106;2023-02-14T16:28:50;31.67;;;16.67;;
4921;SDS011;16625;53.624;10.106;2023-02-14T16:29:52;39.10;;;14.80;;
4921;SDS011;16625;53.624;10.106;2023-02-14T16:32:54;32.20;;;16.23;;
4921;SDS011;16625;53.624;10.106;2023-02-14T16:35:39;30.57;;;15.70;;
4921;SDS011;16625;53.624;10.106;2023-02-14T16:38:29;29.17;;;14.40;;
4921;SDS011;16625;53.624;10.106;2023-02-14T16:44:14;25.43;;;14.60;;
4921;SDS011;16625;53.624;10.106;2023-02-14T16:46:56;31.17;;;16.77;;
4921;SDS011;16625;53.624;10.106;2023-02-14T16:49:30;31.03;;;16.20;;
4921;SDS011;16625;53.624;10.106;2023-02-14T16:52:14;30.70;;;15.37;;
4921;SDS011;16625;53.624;10.106;2023-02-14T16:54:55;33.33;;;14.53;;
4921;SDS011;16625;53.624;10.106;2023-02-14T16:57:28;27.97;;;14.30;;
4921;SDS011;16625;53.624;10.106;2023-02-14T17:00:18;32.73;;;15.57;;
4921;SDS011;16625;53.624;10.106;2023-02-14T17:02:54;32.20;;;16.47;;
4921;SDS011;16625;53.624;10.106;2023-02-14T17:05:41;32.43;;;14.63;;
4921;SDS011;16625;53.624;10.106;2023-02-14T17:08:29;34.00;;;16.47;;
4921;SDS011;16625;53.624;10.106;2023-02-14T17:11:05;33.33;;;15.53;;
4921;SDS011;16625;53.624;10.106;2023-02-14T17:13:57;34.43;;;16.77;;
4921;SDS011;16625;53.624;10.106;2023-02-14T17:16:26;32.93;;;17.27;;
4921;SDS011;16625;53.624;10.106;2023-02-14T17:33:34;47.67;;;19.60;;
4921;SDS011;16625;53.624;10.106;2023-02-14T17:36:27;44.87;;;19.13;;
4921;SDS011;16625;53.624;10.106;2023-02-14T17:39:17;46.53;;;19.33;;
4921;SDS011;16625;53.624;10.106;2023-02-14T17:42:24;35.33;;;16.30;;
4921;SDS011;16625;53.624;10.106;2023-02-14T17:45:02;35.30;;;17.80;;
4921;SDS011;16625;53.624;10.106;2023-02-14T17:47:36;34.80;;;18.27;;
4921;SDS011;16625;53.624;10.106;2023-02-14T17:50:39;39.77;;;19.07;;
4921;SDS011;16625;53.624;10.106;2023-02-14T17:53:08;34.67;;;17.30;;
4921;SDS011;16625;53.624;10.106;2023-02-14T17:55:43;39.10;;;20.03;;
4921;SDS011;16625;53.624;10.106;2023-02-14T18:01:50;35.90;;;18.67;;
4921;SDS011;16625;53.624;10.106;2023-02-14T18:04:52;40.73;;;19.97;;
4921;SDS011;16625;53.624;10.106;2023-02-14T18:07:38;44.73;;;19.17;;
4921;SDS011;16625;53.624;10.106;2023-02-14T18:10:10;48.97;;;19.43;;
4921;SDS011;16625;53.624;10.106;2023-02-14T18:12:54;34.93;;;18.00;;
4921;SDS011;16625;53.624;10.106;2023-02-14T18:15:29;43.70;;;18.87;;
4921;SDS011;16625;53.624;10.106;2023-02-14T18:17:56;49.27;;;18.83;;
4921;SDS011;16625;53.624;10.106;2023-02-14T18:20:48;39.87;;;16.73;;
4921;SDS011;16625;53.624;10.106;2023-02-14T18:23:37;30.30;;;16.70;;
4921;SDS011;16625;53.624;10.106;2023-02-14T18:26:38;44.20;;;17.50;;
4921;SDS011;16625;53.624;10.106;2023-02-14T18:29:11;37.00;;;17.33;;
4921;SDS011;16625;53.624;10.106;2023-02-14T18:31:44;33.03;;;16.70;;
4921;SDS011;16625;53.624;10.106;2023-02-14T18:34:48;37.97;;;17.57;;
4921;SDS011;16625;53.624;10.106;2023-02-14T18:37:43;38.27;;;18.33;;
4921;SDS011;16625;53.624;10.106;2023-02-14T18:44:11;32.20;;;16.00;;
4921;SDS011;16625;53.624;10.106;2023-02-14T18:46:56;40.13;;;16.70;;
4921;SDS011;16625;53.624;10.106;2023-02-14T18:49:37;38.63;;;17.40;;
4921;SDS011;16625;53.624;10.106;2023-02-14T18:56:13;34.87;;;17.17;;
4921;SDS011;16625;53.624;10.106;2023-02-14T18:59:15;39.40;;;17.97;;
4921;SDS011;16625;53.624;10.106;2023-02-14T19:01:56;29.50;;;16.57;;
4921;SDS011;16625;53.624;10.106;2023-02-14T19:04:34;38.67;;;19.00;;
4921;SDS011;16625;53.624;10.106;2023-02-14T19:07:31;41.50;;;19.60;;
4921;SDS011;16625;53.624;10.106;2023-02-14T19:10:03;42.47;;;20.20;;
4921;SDS011;16625;53.624;10.106;2023-02-14T19:12:51;42.47;;;20.43;;
4921;SDS011;16625;53.624;10.106;2023-02-14T19:15:39;43.80;;;21.77;;
4921;SDS011;16625;53.624;10.106;2023-02-14T19:18:25;54.40;;;20.90;;
4921;SDS011;16625;53.624;10.106;2023-02-14T19:21:07;41.33;;;20.47;;
4921;SDS011;16625;53.624;10.106;2023-02-14T19:23:55;45.50;;;20.10;;
4921;SDS011;16625;53.624;10.106;2023-02-14T19:26:34;39.83;;;20.70;;
4921;SDS011;16625;53.624;10.106;2023-02-14T19:29:23;42.23;;;19.57;;
4921;SDS011;16625;53.624;10.106;2023-02-14T19:35:23;37.17;;;18.50;;
4921;SDS011;16625;53.624;10.106;2023-02-14T19:38:01;39.20;;;18.53;;
4921;SDS011;16625;53.624;10.106;2023-02-14T19:40:44;41.40;;;19.23;;
4921;SDS011;16625;53.624;10.106;2023-02-14T19:43:37;37.97;;;18.50;;
4921;SDS011;16625;53.624;10.106;2023-02-14T19:46:21;36.47;;;18.97;;
4921;SDS011;16625;53.624;10.106;2023-02-14T19:49:31;47.17;;;19.27;;
4921;SDS011;16625;53.624;10.106;2023-02-14T19:52:17;45.40;;;20.50;;
4921;SDS011;16625;53.624;10.106;2023-02-14T19:54:52;46.30;;;19.70;;
4921;SDS011;16625;53.624;10.106;2023-02-14T19:58:42;58.00;;;21.10;;
4921;SDS011;16625;53.624;10.106;2023-02-14T20:01:12;50.07;;;22.30;;
4921;SDS011;16625;53.624;10.106;2023-02-14T20:03:48;43.87;;;22.33;;
4921;SDS011;16625;53.624;10.106;2023-02-14T20:06:36;42.37;;;22.07;;
4921;SDS011;16625;53.624;10.106;2023-02-14T20:12:16;58.60;;;25.23;;
4921;SDS011;16625;53.624;10.106;2023-02-14T20:15:07;48.03;;;25.07;;
4921;SDS011;16625;53.624;10.106;2023-02-14T20:17:39;54.87;;;22.87;;
4921;SDS011;16625;53.624;10.106;2023-02-14T20:23:56;52.77;;;23.63;;
4921;SDS011;16625;53.624;10.106;2023-02-14T20:26:34;49.43;;;22.03;;
4921;SDS011;16625;53.624;10.106;2023-02-14T20:29:06;47.70;;;23.47;;
4921;SDS011;16625;53.624;10.106;2023-02-14T20:31:48;53.17;;;24.03;;
4921;SDS011;16625;53.624;10.106;2023-02-14T20:34:38;52.03;;;24.40;;
4921;SDS011;16625;53.624;10.106;2023-02-14T20:37:17;50.00;;;24.03;;
4921;SDS011;16625;53.624;10.106;2023-02-14T20:40:00;55.53;;;24.50;;
4921;SDS011;16625;53.624;10.106;2023-02-14T20:42:53;56.87;;;24.67;;
4921;SDS011;16625;53.624;10.106;2023-02-14T20:49:15;48.57;;;23.70;;
4921;SDS011;16625;53.624;10.106;2023-02-14T20:52:06;54.97;;;24.37;;
4921;SDS011;16625;53.624;10.106;2023-02-14T20:54:34;46.67;;;23.23;;
4921;SDS011;16625;53.624;10.106;2023-02-14T20:57:03;54.87;;;25.97;;
4921;SDS011;16625;53.624;10.106;2023-02-14T20:59:35;52.60;;;24.00;;
4921;SDS011;16625;53.624;10.106;2023-02-14T21:02:05;49.20;;;24.97;;
4921;SDS011;16625;53.624;10.106;2023-02-14T21:04:37;54.53;;;26.97;;
4921;SDS011;16625;53.624;10.106;2023-02-14T21:07:08;53.73;;;26.00;;
4921;SDS011;16625;53.624;10.106;2023-02-14T21:09:39;58.60;;;25.80;;
4921;SDS011;16625;53.624;10.106;2023-02-14T21:12:12;54.80;;;29.10;;
4921;SDS011;16625;53.624;10.106;2023-02-14T21:15:13;60.70;;;28.07;;
4921;SDS011;16625;53.624;10.106;2023-02-14T21:17:53;69.77;;;28.90;;
4921;SDS011;16625;53.624;10.106;2023-02-14T21:20:27;74.67;;;32.23;;
4921;SDS011;16625;53.624;10.106;2023-02-14T21:23:01;72.50;;;33.60;;
4921;SDS011;16625;53.624;10.106;2023-02-14T21:25:50;69.17;;;35.47;;
4921;SDS011;16625;53.624;10.106;2023-02-14T21:28:35;73.67;;;33.07;;
4921;SDS011;16625;53.624;10.106;2023-02-14T21:31:19;75.50;;;33.03;;
4921;SDS011;16625;53.624;10.106;2023-02-14T21:34:04;71.87;;;30.60;;
4921;SDS011;16625;53.624;10.106;2023-02-14T21:36:37;65.60;;;30.37;;
4921;SDS011;16625;53.624;10.106;2023-02-14T21:39:08;68.13;;;29.57;;
4921;SDS011;16625;53.624;10.106;2023-02-14T21:41:39;83.90;;;31.17;;
4921;SDS011;16625;53.624;10.106;2023-02-14T21:44:12;64.53;;;28.97;;
4921;SDS011;16625;53.624;10.106;2023-02-14T21:47:18;66.03;;;30.20;;
4921;SDS011;16625;53.624;10.106;2023-02-14T21:49:50;72.20;;;31.70;;
4921;SDS011;16625;53.624;10.106;2023-02-14T21:52:32;63.53;;;28.20;;
4921;SDS011;16625;53.624;10.106;2023-02-14T21:55:01;61.13;;;25.87;;
4921;SDS011;16625;53.624;10.106;2023-02-14T21:57:35;72.83;;;29.13;;
4921;SDS011;16625;53.624;10.106;2023-02-14T22:00:04;58.70;;;28.57;;
4921;SDS011;16625;53.624;10.106;2023-02-14T22:05:41;60.77;;;27.90;;
4921;SDS011;16625;53.624;10.106;2023-02-14T22:08:15;68.23;;;31.10;;
4921;SDS011;16625;53.624;10.106;2023-02-14T22:10:47;61.13;;;27.77;;
4921;SDS011;16625;53.624;10.106;2023-02-14T22:13:22;71.80;;;30.40;;
4921;SDS011;16625;53.624;10.106;2023-02-14T22:16:01;73.20;;;31.37;;
4921;SDS011;16625;53.624;10.106;2023-02-14T22:18:39;63.60;;;31.60;;
4921;SDS011;16625;53.624;10.106;2023-02-14T22:21:25;64.93;;;30.77;;
4921;SDS011;16625;53.624;10.106;2023-02-14T22:23:57;69.20;;;27.83;;
4921;SDS011;16625;53.624;10.106;2023-02-14T22:26:45;73.40;;;27.97;;
4921;SDS011;16625;53.624;10.106;2023-02-14T22:29:22;71.87;;;31.80;;
4921;SDS011;16625;53.624;10.106;2023-02-14T22:31:49;71.30;;;32.50;;
4921;SDS011;16625;53.624;10.106;2023-02-14T22:34:21;76.87;;;31.50;;
4921;SDS011;16625;53.624;10.106;2023-02-14T22:36:49;64.40;;;32.50;;
4921;SDS011;16625;53.624;10.106;2023-02-14T22:39:20;72.47;;;30.97;;
4921;SDS011;16625;53.624;10.106;2023-02-14T22:41:49;74.93;;;31.90;;
4921;SDS011;16625;53.624;10.106;2023-02-14T22:44:16;71.57;;;28.50;;
4921;SDS011;16625;53.624;10.106;2023-02-14T22:46:49;70.23;;;32.03;;
4921;SDS011;16625;53.624;10.106;2023-02-14T22:49:23;78.07;;;34.97;;
4921;SDS011;16625;53.624;10.106;2023-02-14T22:52:40;80.10;;;32.73;;
4921;SDS011;16625;53.624;10.106;2023-02-14T22:55:14;80.53;;;31.97;;
4921;SDS011;16625;53.624;10.106;2023-02-14T22:57:50;73.60;;;32.37;;
4921;SDS011;16625;53.624;10.106;2023-02-14T23:00:23;85.43;;;30.20;;
4921;SDS011;16625;53.624;10.106;2023-02-14T23:03:01;83.03;;;32.13;;
4921;SDS011;16625;53.624;10.106;2023-02-14T23:05:30;88.60;;;32.80;;
4921;SDS011;16625;53.624;10.106;2023-02-14T23:08:02;80.97;;;31.00;;
4921;SDS011;16625;53.624;10.106;2023-02-14T23:10:36;90.77;;;32.40;;
4921;SDS011;16625;53.624;10.106;2023-02-14T23:13:22;87.73;;;32.93;;
4921;SDS011;16625;53.624;10.106;2023-02-14T23:16:16;89.93;;;32.47;;
4921;SDS011;16625;53.624;10.106;2023-02-14T23:19:02;91.80;;;34.87;;
4921;SDS011;16625;53.624;10.106;2023-02-14T23:21:57;82.10;;;31.70;;
4921;SDS011;16625;53.624;10.106;2023-02-14T23:24:29;108.17;;;33.10;;
4921;SDS011;16625;53.624;10.106;2023-02-14T23:27:09;76.90;;;32.23;;
4921;SDS011;16625;53.624;10.106;2023-02-14T23:29:39;88.83;;;36.00;;
4921;SDS011;16625;53.624;10.106;2023-02-14T23:32:11;88.27;;;31.70;;
4921;SDS011;16625;53.624;10.106;2023-02-14T23:34:43;78.17;;;32.57;;
4921;SDS011;16625;53.624;10.106;2023-02-14T23:37:14;87.03;;;32.40;;
4921;SDS011;16625;53.624;10.106;2023-02-14T23:42:53;95.50;;;34.37;;
4921;SDS011;16625;53.624;10.106;2023-02-14T23:45:20;98.97;;;33.87;;
4921;SDS011;16625;53.624;10.106;2023-02-14T23:48:06;106.83;;;35.70;;
4921;SDS011;16625;53.624;10.106;2023-02-14T23:50:35;81.87;;;31.47;;
4921;SDS011;16625;53.624;10.106;2023-02-14T23:53:07;89.13;;;34.40;;
4921;SDS011;16625;53.624;10.106;2023-02-14T23:55:41;112.17;;;34.27;;
4921;SDS011;16625;53.624;10.106;2023-02-14T23:58:10;79.20;;;33.83;;
